27.7°F
Current conditions from King Hill
Updated every 5 minutes
 
  Thursday November 20, 2014

Station Historical Data
Daily Summary for April 4, 2012 Units:  Both    English   Metric
« Previous Day
Next Day »
Daily Weekly Monthly Yearly Custom
  High: Low: Average:
Temperature: 50.9 °F /  10.5 °C 35.3 °F /  1.8 °C 41.3 °F /  5.2 °C
Dew Point: 33.3 °F /  0.7 °C 18.6 °F /  -7.4 °C 25.1 °F /  -3.8 °C
Humidity: 79% 39% 53%
Wind Speed: 11.0mph /  17.7km/h - 4.6mph /  7.4km/h
Wind Gust: 24.0mph /  38.6km/h - -
Wind- - WNW
Pressure: 29.72 in /  1006.3 hPa 29.51 in /  999.2 hPa -
Precipitation: 0.01 in /  0.3 mm    
Historical Graphs
 
 
Tabular Data for April 4, 2012
Time Temperature Dew Point Pressure Wind Wind Speed Wind Gust Humidity Daily Rainfall
00:04 41.5 °F /  5.3 °C 23.8 °F /  -4.6 °C 29.70in /  1005.6hPa Calm     49% 0.00in /  0mm
00:09 41.5 °F /  5.3 °C 24.2 °F /  -4.3 °C 29.71in /  1006hPa Calm   1.0mph /  1.6km/h 50% 0.00in /  0mm
00:14 41.3 °F /  5.2 °C 24.1 °F /  -4.4 °C 29.71in /  1006hPa WSW 2.0mph /  3.2km/h 4.0mph /  6.4km/h 50% 0.00in /  0mm
00:19 41.2 °F /  5.1 °C 23.5 °F /  -4.7 °C 29.71in /  1006hPa WSW 1.0mph /  1.6km/h 4.0mph /  6.4km/h 49% 0.00in /  0mm
00:24 41.3 °F /  5.2 °C 23.6 °F /  -4.7 °C 29.71in /  1006hPa WSW 1.0mph /  1.6km/h 4.0mph /  6.4km/h 49% 0.00in /  0mm
00:29 41.5 °F /  5.3 °C 23.3 °F /  -4.8 °C 29.71in /  1006hPa NW 1.0mph /  1.6km/h 8.0mph /  12.9km/h 48% 0.00in /  0mm
00:34 41.7 °F /  5.4 °C 23.0 °F /  -5 °C 29.71in /  1006hPa NW 1.0mph /  1.6km/h 8.0mph /  12.9km/h 47% 0.00in /  0mm
00:39 41.8 °F /  5.4 °C 23.0 °F /  -5 °C 29.72in /  1006.3hPa WNW 1.0mph /  1.6km/h 8.0mph /  12.9km/h 47% 0.00in /  0mm
00:44 41.8 °F /  5.4 °C 23.0 °F /  -5 °C 29.72in /  1006.3hPa NW 1.0mph /  1.6km/h 6.0mph /  9.7km/h 47% 0.00in /  0mm
00:50 41.8 °F /  5.4 °C 22.5 °F /  -5.3 °C 29.72in /  1006.3hPa Calm   6.0mph /  9.7km/h 46% 0.00in /  0mm
00:59 41.7 °F /  5.4 °C 22.4 °F /  -5.3 °C 29.71in /  1006hPa Calm   4.0mph /  6.4km/h 46% 0.00in /  0mm
01:04 41.8 °F /  5.4 °C 22.5 °F /  -5.3 °C 29.71in /  1006hPa Calm   3.0mph /  4.8km/h 46% 0.00in /  0mm
01:09 41.8 °F /  5.4 °C 23.0 °F /  -5 °C 29.71in /  1006hPa Calm   2.0mph /  3.2km/h 47% 0.00in /  0mm
01:14 41.7 °F /  5.4 °C 21.9 °F /  -5.6 °C 29.70in /  1005.6hPa Calm   1.0mph /  1.6km/h 45% 0.00in /  0mm
01:19 41.7 °F /  5.4 °C 22.4 °F /  -5.3 °C 29.70in /  1005.6hPa Calm   1.0mph /  1.6km/h 46% 0.00in /  0mm
01:24 41.6 °F /  5.3 °C 22.9 °F /  -5.1 °C 29.70in /  1005.6hPa Calm     47% 0.00in /  0mm
01:29 41.4 °F /  5.2 °C 22.2 °F /  -5.4 °C 29.70in /  1005.6hPa Calm     46% 0.00in /  0mm
01:34 41.2 °F /  5.1 °C 22.0 °F /  -5.6 °C 29.70in /  1005.6hPa Calm     46% 0.00in /  0mm
01:39 41.0 °F /  5 °C 21.8 °F /  -5.7 °C 29.69in /  1005.3hPa Calm     46% 0.00in /  0mm
01:45 40.8 °F /  4.9 °C 22.1 °F /  -5.5 °C 29.69in /  1005.3hPa Calm     47% 0.00in /  0mm
01:50 40.4 °F /  4.7 °C 22.7 °F /  -5.2 °C 29.69in /  1005.3hPa Calm   1.0mph /  1.6km/h 49% 0.00in /  0mm
01:59 40.2 °F /  4.6 °C 22.1 °F /  -5.5 °C 29.69in /  1005.3hPa Calm   3.0mph /  4.8km/h 48% 0.00in /  0mm
02:04 40.3 °F /  4.6 °C 22.2 °F /  -5.4 °C 29.69in /  1005.3hPa Calm   2.0mph /  3.2km/h 48% 0.00in /  0mm
02:09 40.4 °F /  4.7 °C 21.8 °F /  -5.7 °C 29.68in /  1005hPa Calm   2.0mph /  3.2km/h 47% 0.00in /  0mm
02:14 40.4 °F /  4.7 °C 21.8 °F /  -5.7 °C 29.68in /  1005hPa Calm   1.0mph /  1.6km/h 47% 0.00in /  0mm
02:19 40.5 °F /  4.7 °C 21.9 °F /  -5.6 °C 29.68in /  1005hPa WNW 1.0mph /  1.6km/h 3.0mph /  4.8km/h 47% 0.00in /  0mm
02:24 40.5 °F /  4.7 °C 21.9 °F /  -5.6 °C 29.68in /  1005hPa Calm   3.0mph /  4.8km/h 47% 0.00in /  0mm
02:29 40.5 °F /  4.7 °C 21.9 °F /  -5.6 °C 29.68in /  1005hPa WNW 1.0mph /  1.6km/h 3.0mph /  4.8km/h 47% 0.00in /  0mm
02:34 40.4 °F /  4.7 °C 21.8 °F /  -5.7 °C 29.68in /  1005hPa Calm   3.0mph /  4.8km/h 47% 0.00in /  0mm
02:39 40.4 °F /  4.7 °C 21.8 °F /  -5.7 °C 29.68in /  1005hPa Calm   3.0mph /  4.8km/h 47% 0.00in /  0mm
02:44 40.4 °F /  4.7 °C 22.3 °F /  -5.4 °C 29.68in /  1005hPa Calm   3.0mph /  4.8km/h 48% 0.00in /  0mm
02:49 40.3 °F /  4.6 °C 22.2 °F /  -5.4 °C 29.68in /  1005hPa Calm   2.0mph /  3.2km/h 48% 0.00in /  0mm
02:54 40.1 °F /  4.5 °C 22.0 °F /  -5.6 °C 29.68in /  1005hPa Calm   2.0mph /  3.2km/h 48% 0.00in /  0mm
03:04 39.8 °F /  4.3 °C 21.7 °F /  -5.7 °C 29.67in /  1004.6hPa Calm     48% 0.00in /  0mm
03:09 39.5 °F /  4.2 °C 21.4 °F /  -5.9 °C 29.67in /  1004.6hPa Calm     48% 0.00in /  0mm
03:14 39.4 °F /  4.1 °C 21.8 °F /  -5.7 °C 29.67in /  1004.6hPa Calm     49% 0.00in /  0mm
03:19 39.4 °F /  4.1 °C 21.8 °F /  -5.7 °C 29.67in /  1004.6hPa Calm     49% 0.00in /  0mm
03:24 39.3 °F /  4.1 °C 22.7 °F /  -5.2 °C 29.66in /  1004.3hPa Calm     51% 0.00in /  0mm
03:29 39.1 °F /  3.9 °C 22.5 °F /  -5.3 °C 29.66in /  1004.3hPa Calm     51% 0.00in /  0mm
03:34 38.8 °F /  3.8 °C 23.1 °F /  -4.9 °C 29.66in /  1004.3hPa Calm     53% 0.00in /  0mm
03:39 38.6 °F /  3.7 °C 22.0 °F /  -5.6 °C 29.66in /  1004.3hPa Calm     51% 0.00in /  0mm
03:45 38.4 °F /  3.6 °C 22.3 °F /  -5.4 °C 29.66in /  1004.3hPa Calm     52% 0.00in /  0mm
03:50 38.3 °F /  3.5 °C 22.2 °F /  -5.4 °C 29.65in /  1003.9hPa Calm     52% 0.00in /  0mm
03:55 38.1 °F /  3.4 °C 22.5 °F /  -5.3 °C 29.65in /  1003.9hPa Calm     53% 0.00in /  0mm
04:04 37.8 °F /  3.2 °C 22.2 °F /  -5.4 °C 29.65in /  1003.9hPa Calm   2.0mph /  3.2km/h 53% 0.00in /  0mm
04:09 37.6 °F /  3.1 °C 21.1 °F /  -6.1 °C 29.64in /  1003.6hPa WNW 1.0mph /  1.6km/h 3.0mph /  4.8km/h 51% 0.00in /  0mm
04:14 37.6 °F /  3.1 °C 21.6 °F /  -5.8 °C 29.64in /  1003.6hPa Calm   3.0mph /  4.8km/h 52% 0.00in /  0mm
04:19 37.6 °F /  3.1 °C 21.1 °F /  -6.1 °C 29.64in /  1003.6hPa Calm   1.0mph /  1.6km/h 51% 0.00in /  0mm
04:24 37.6 °F /  3.1 °C 21.1 °F /  -6.1 °C 29.64in /  1003.6hPa Calm   2.0mph /  3.2km/h 51% 0.00in /  0mm
04:29 37.3 °F /  2.9 °C 20.8 °F /  -6.2 °C 29.64in /  1003.6hPa Calm   2.0mph /  3.2km/h 51% 0.00in /  0mm
04:34 36.8 °F /  2.7 °C 20.8 °F /  -6.2 °C 29.64in /  1003.6hPa Calm   2.0mph /  3.2km/h 52% 0.00in /  0mm
04:39 36.7 °F /  2.6 °C 20.7 °F /  -6.3 °C 29.64in /  1003.6hPa Calm   2.0mph /  3.2km/h 52% 0.00in /  0mm
04:44 36.9 °F /  2.7 °C 20.9 °F /  -6.2 °C 29.64in /  1003.6hPa Calm   1.0mph /  1.6km/h 52% 0.00in /  0mm
04:50 37.0 °F /  2.8 °C 20.5 °F /  -6.4 °C 29.63in /  1003.3hPa Calm     51% 0.00in /  0mm
04:59 37.5 °F /  3.1 °C 20.1 °F /  -6.6 °C 29.63in /  1003.3hPa Calm   2.0mph /  3.2km/h 49% 0.00in /  0mm
05:04 37.9 °F /  3.3 °C 19.5 °F /  -6.9 °C 29.63in /  1003.3hPa Calm   2.0mph /  3.2km/h 47% 0.00in /  0mm
05:09 37.9 °F /  3.3 °C 20.4 °F /  -6.4 °C 29.63in /  1003.3hPa WSW 1.0mph /  1.6km/h 3.0mph /  4.8km/h 49% 0.00in /  0mm
05:14 37.8 °F /  3.2 °C 19.9 °F /  -6.7 °C 29.63in /  1003.3hPa WSW 1.0mph /  1.6km/h 4.0mph /  6.4km/h 48% 0.00in /  0mm
05:19 37.6 °F /  3.1 °C 20.2 °F /  -6.6 °C 29.63in /  1003.3hPa Calm   4.0mph /  6.4km/h 49% 0.00in /  0mm
05:24 37.7 °F /  3.2 °C 19.8 °F /  -6.8 °C 29.63in /  1003.3hPa SW 1.0mph /  1.6km/h 6.0mph /  9.7km/h 48% 0.00in /  0mm
05:29 37.8 °F /  3.2 °C 19.9 °F /  -6.7 °C 29.63in /  1003.3hPa Calm   6.0mph /  9.7km/h 48% 0.00in /  0mm
05:35 38.0 °F /  3.3 °C 19.6 °F /  -6.9 °C 29.62in /  1002.9hPa WSW 2.0mph /  3.2km/h 4.0mph /  6.4km/h 47% 0.00in /  0mm
05:44 38.3 °F /  3.5 °C 19.3 °F /  -7.1 °C 29.62in /  1002.9hPa WSW 1.0mph /  1.6km/h 5.0mph /  8km/h 46% 0.00in /  0mm
05:49 38.5 °F /  3.6 °C 19.5 °F /  -6.9 °C 29.62in /  1002.9hPa WSW 2.0mph /  3.2km/h 6.0mph /  9.7km/h 46% 0.00in /  0mm
05:54 38.8 °F /  3.8 °C 19.8 °F /  -6.8 °C 29.61in /  1002.6hPa Calm   6.0mph /  9.7km/h 46% 0.00in /  0mm
05:59 38.9 °F /  3.8 °C 19.9 °F /  -6.7 °C 29.62in /  1002.9hPa West 2.0mph /  3.2km/h 6.0mph /  9.7km/h 46% 0.00in /  0mm
06:04 38.9 °F /  3.8 °C 20.4 °F /  -6.4 °C 29.62in /  1002.9hPa West 2.0mph /  3.2km/h 6.0mph /  9.7km/h 47% 0.00in /  0mm
06:09 39.1 °F /  3.9 °C 20.6 °F /  -6.3 °C 29.62in /  1002.9hPa West 3.0mph /  4.8km/h 7.0mph /  11.3km/h 47% 0.00in /  0mm
06:14 39.4 °F /  4.1 °C 20.3 °F /  -6.5 °C 29.62in /  1002.9hPa West 3.0mph /  4.8km/h 8.0mph /  12.9km/h 46% 0.00in /  0mm
06:19 39.4 °F /  4.1 °C 20.3 °F /  -6.5 °C 29.62in /  1002.9hPa WSW 3.0mph /  4.8km/h 10.0mph /  16.1km/h 46% 0.00in /  0mm
06:24 39.5 °F /  4.2 °C 20.4 °F /  -6.4 °C 29.62in /  1002.9hPa West 4.0mph /  6.4km/h 10.0mph /  16.1km/h 46% 0.00in /  0mm
06:29 39.6 °F /  4.2 °C 21.5 °F /  -5.8 °C 29.62in /  1002.9hPa West 4.0mph /  6.4km/h 7.0mph /  11.3km/h 48% 0.00in /  0mm
06:34 39.6 °F /  4.2 °C 20.5 °F /  -6.4 °C 29.62in /  1002.9hPa WSW 4.0mph /  6.4km/h 9.0mph /  14.5km/h 46% 0.00in /  0mm
06:39 39.6 °F /  4.2 °C 20.5 °F /  -6.4 °C 29.62in /  1002.9hPa West 4.0mph /  6.4km/h 9.0mph /  14.5km/h 46% 0.00in /  0mm
06:44 39.5 °F /  4.2 °C 20.4 °F /  -6.4 °C 29.62in /  1002.9hPa WSW 3.0mph /  4.8km/h 7.0mph /  11.3km/h 46% 0.00in /  0mm
06:49 39.5 °F /  4.2 °C 20.9 °F /  -6.2 °C 29.61in /  1002.6hPa WSW 1.0mph /  1.6km/h 6.0mph /  9.7km/h 47% 0.00in /  0mm
06:55 39.5 °F /  4.2 °C 20.4 °F /  -6.4 °C 29.61in /  1002.6hPa WSW 1.0mph /  1.6km/h 8.0mph /  12.9km/h 46% 0.00in /  0mm
07:04 39.4 °F /  4.1 °C 20.3 °F /  -6.5 °C 29.61in /  1002.6hPa WSW 3.0mph /  4.8km/h 8.0mph /  12.9km/h 46% 0.00in /  0mm
07:09 39.4 °F /  4.1 °C 20.3 °F /  -6.5 °C 29.61in /  1002.6hPa WSW 4.0mph /  6.4km/h 8.0mph /  12.9km/h 46% 0.00in /  0mm
07:14 39.4 °F /  4.1 °C 20.3 °F /  -6.5 °C 29.60in /  1002.3hPa WSW 5.0mph /  8km/h 8.0mph /  12.9km/h 46% 0.00in /  0mm
07:19 39.4 °F /  4.1 °C 20.3 °F /  -6.5 °C 29.60in /  1002.3hPa WSW 4.0mph /  6.4km/h 8.0mph /  12.9km/h 46% 0.00in /  0mm
07:24 39.5 °F /  4.2 °C 20.9 °F /  -6.2 °C 29.60in /  1002.3hPa SW 1.0mph /  1.6km/h 8.0mph /  12.9km/h 47% 0.00in /  0mm
07:29 39.6 °F /  4.2 °C 20.5 °F /  -6.4 °C 29.60in /  1002.3hPa WSW 4.0mph /  6.4km/h 8.0mph /  12.9km/h 46% 0.00in /  0mm
07:34 39.7 °F /  4.3 °C 20.6 °F /  -6.3 °C 29.60in /  1002.3hPa WSW 3.0mph /  4.8km/h 7.0mph /  11.3km/h 46% 0.00in /  0mm
07:40 39.8 °F /  4.3 °C 20.7 °F /  -6.3 °C 29.60in /  1002.3hPa WSW 4.0mph /  6.4km/h 7.0mph /  11.3km/h 46% 0.00in /  0mm
07:50 40.0 °F /  4.4 °C 20.4 °F /  -6.4 °C 29.59in /  1001.9hPa West 4.0mph /  6.4km/h 8.0mph /  12.9km/h 45% 0.00in /  0mm
07:55 40.2 °F /  4.6 °C 20.5 °F /  -6.4 °C 29.59in /  1001.9hPa WSW 3.0mph /  4.8km/h 8.0mph /  12.9km/h 45% 0.00in /  0mm
08:04 40.5 °F /  4.7 °C 19.8 °F /  -6.8 °C 29.59in /  1001.9hPa WSW 6.0mph /  9.7km/h 12.0mph /  19.3km/h 43% 0.00in /  0mm
08:10 40.7 °F /  4.8 °C 19.9 °F /  -6.7 °C 29.59in /  1001.9hPa WSW 4.0mph /  6.4km/h 11.0mph /  17.7km/h 43% 0.00in /  0mm
08:19 40.7 °F /  4.8 °C 19.9 °F /  -6.7 °C 29.58in /  1001.6hPa WSW 3.0mph /  4.8km/h 10.0mph /  16.1km/h 43% 0.00in /  0mm
08:24 40.6 °F /  4.8 °C 19.8 °F /  -6.8 °C 29.58in /  1001.6hPa West 5.0mph /  8km/h 9.0mph /  14.5km/h 43% 0.00in /  0mm
08:29 40.6 °F /  4.8 °C 19.3 °F /  -7.1 °C 29.58in /  1001.6hPa WSW 5.0mph /  8km/h 9.0mph /  14.5km/h 42% 0.00in /  0mm
08:34 40.5 °F /  4.7 °C 18.6 °F /  -7.4 °C 29.58in /  1001.6hPa WSW 7.0mph /  11.3km/h 10.0mph /  16.1km/h 41% 0.00in /  0mm
08:40 40.5 °F /  4.7 °C 19.2 °F /  -7.1 °C 29.58in /  1001.6hPa WSW 5.0mph /  8km/h 10.0mph /  16.1km/h 42% 0.00in /  0mm
08:50 40.6 °F /  4.8 °C 20.4 °F /  -6.4 °C 29.58in /  1001.6hPa West 2.0mph /  3.2km/h 9.0mph /  14.5km/h 44% 0.00in /  0mm
08:59 40.5 °F /  4.7 °C 20.3 °F /  -6.5 °C 29.58in /  1001.6hPa WSW 1.0mph /  1.6km/h 11.0mph /  17.7km/h 44% 0.00in /  0mm
09:04 40.5 °F /  4.7 °C 20.3 °F /  -6.5 °C 29.58in /  1001.6hPa WSW 3.0mph /  4.8km/h 7.0mph /  11.3km/h 44% 0.00in /  0mm
09:09 40.6 °F /  4.8 °C 20.4 °F /  -6.4 °C 29.58in /  1001.6hPa WSW 1.0mph /  1.6km/h 7.0mph /  11.3km/h 44% 0.00in /  0mm
09:14 40.8 °F /  4.9 °C 21.1 °F /  -6.1 °C 29.57in /  1001.2hPa SW 3.0mph /  4.8km/h 7.0mph /  11.3km/h 45% 0.00in /  0mm
09:19 41.0 °F /  5 °C 21.3 °F /  -5.9 °C 29.57in /  1001.2hPa Calm   7.0mph /  11.3km/h 45% 0.00in /  0mm
09:25 41.2 °F /  5.1 °C 20.9 °F /  -6.2 °C 29.57in /  1001.2hPa WSW 4.0mph /  6.4km/h 9.0mph /  14.5km/h 44% 0.00in /  0mm
09:34 41.5 °F /  5.3 °C 21.2 °F /  -6 °C 29.57in /  1001.2hPa WSW 3.0mph /  4.8km/h 7.0mph /  11.3km/h 44% 0.00in /  0mm
09:40 41.7 °F /  5.4 °C 21.4 °F /  -5.9 °C 29.57in /  1001.2hPa West 1.0mph /  1.6km/h 7.0mph /  11.3km/h 44% 0.00in /  0mm
09:49 43.2 °F /  6.2 °C 21.1 °F /  -6.1 °C 29.57in /  1001.2hPa SW 1.0mph /  1.6km/h 8.0mph /  12.9km/h 41% 0.00in /  0mm
09:55 43.2 °F /  6.2 °C 21.7 °F /  -5.7 °C 29.57in /  1001.2hPa West 3.0mph /  4.8km/h 8.0mph /  12.9km/h 42% 0.00in /  0mm
10:04 44.0 °F /  6.7 °C 21.8 °F /  -5.7 °C 29.57in /  1001.2hPa WNW 2.0mph /  3.2km/h 9.0mph /  14.5km/h 41% 0.00in /  0mm
10:09 44.0 °F /  6.7 °C 20.6 °F /  -6.3 °C 29.56in /  1000.9hPa WNW 5.0mph /  8km/h 9.0mph /  14.5km/h 39% 0.00in /  0mm
10:14 43.6 °F /  6.4 °C 20.3 °F /  -6.5 °C 29.56in /  1000.9hPa WNW 4.0mph /  6.4km/h 9.0mph /  14.5km/h 39% 0.00in /  0mm
10:19 43.3 °F /  6.3 °C 20.6 °F /  -6.3 °C 29.56in /  1000.9hPa West 3.0mph /  4.8km/h 15.0mph /  24.1km/h 40% 0.00in /  0mm
10:24 43.4 °F /  6.3 °C 20.1 °F /  -6.6 °C 29.56in /  1000.9hPa NW 4.0mph /  6.4km/h 15.0mph /  24.1km/h 39% 0.00in /  0mm
10:29 43.5 °F /  6.4 °C 20.8 °F /  -6.2 °C 29.56in /  1000.9hPa West 2.0mph /  3.2km/h 9.0mph /  14.5km/h 40% 0.00in /  0mm
10:34 43.5 °F /  6.4 °C 20.8 °F /  -6.2 °C 29.56in /  1000.9hPa NW 7.0mph /  11.3km/h 17.0mph /  27.4km/h 40% 0.00in /  0mm
10:39 43.8 °F /  6.6 °C 21.6 °F /  -5.8 °C 29.56in /  1000.9hPa NW 10.0mph /  16.1km/h 20.0mph /  32.2km/h 41% 0.00in /  0mm
10:44 44.0 °F /  6.7 °C 21.2 °F /  -6 °C 29.56in /  1000.9hPa NW 11.0mph /  17.7km/h 20.0mph /  32.2km/h 40% 0.00in /  0mm
10:55 45.0 °F /  7.2 °C 23.3 °F /  -4.8 °C 29.56in /  1000.9hPa WNW 6.0mph /  9.7km/h 19.0mph /  30.6km/h 42% 0.00in /  0mm
11:05 46.2 °F /  7.9 °C 24.9 °F /  -3.9 °C 29.56in /  1000.9hPa NNW 7.0mph /  11.3km/h 20.0mph /  32.2km/h 43% 0.00in /  0mm
11:14 46.5 °F /  8.1 °C 24.1 °F /  -4.4 °C 29.56in /  1000.9hPa NNW 11.0mph /  17.7km/h 21.0mph /  33.8km/h 41% 0.00in /  0mm
11:19 46.3 °F /  7.9 °C 24.5 °F /  -4.2 °C 29.56in /  1000.9hPa NNW 6.0mph /  9.7km/h 21.0mph /  33.8km/h 42% 0.00in /  0mm
11:24 47.2 °F /  8.4 °C 25.3 °F /  -3.7 °C 29.55in /  1000.6hPa NNW 5.0mph /  8km/h 16.0mph /  25.7km/h 42% 0.00in /  0mm
11:35 48.4 °F /  9.1 °C 26.4 °F /  -3.1 °C 29.56in /  1000.9hPa NNW 7.0mph /  11.3km/h 17.0mph /  27.4km/h 42% 0.00in /  0mm
11:45 47.9 °F /  8.8 °C 24.7 °F /  -4.1 °C 29.55in /  1000.6hPa NW 5.0mph /  8km/h 17.0mph /  27.4km/h 40% 0.00in /  0mm
11:54 47.9 °F /  8.8 °C 25.3 °F /  -3.7 °C 29.55in /  1000.6hPa NW 11.0mph /  17.7km/h 19.0mph /  30.6km/h 41% 0.00in /  0mm
11:59 47.3 °F /  8.5 °C 25.9 °F /  -3.4 °C 29.55in /  1000.6hPa NNW 6.0mph /  9.7km/h 19.0mph /  30.6km/h 43% 0.00in /  0mm
12:04 48.0 °F /  8.9 °C 26.6 °F /  -3 °C 29.55in /  1000.6hPa NNW 4.0mph /  6.4km/h 15.0mph /  24.1km/h 43% 0.00in /  0mm
12:09 48.8 °F /  9.3 °C 26.1 °F /  -3.3 °C 29.55in /  1000.6hPa NW 8.0mph /  12.9km/h 17.0mph /  27.4km/h 41% 0.00in /  0mm
12:19 48.1 °F /  8.9 °C 26.1 °F /  -3.3 °C 29.54in /  1000.2hPa NNW 11.0mph /  17.7km/h 15.0mph /  24.1km/h 42% 0.00in /  0mm
12:24 47.9 °F /  8.8 °C 25.9 °F /  -3.4 °C 29.54in /  1000.2hPa NW 8.0mph /  12.9km/h 16.0mph /  25.7km/h 42% 0.00in /  0mm
12:30 48.4 °F /  9.1 °C 27.5 °F /  -2.5 °C 29.54in /  1000.2hPa NNW 7.0mph /  11.3km/h 16.0mph /  25.7km/h 44% 0.00in /  0mm
12:39 49.1 °F /  9.5 °C 27.6 °F /  -2.4 °C 29.53in /  999.9hPa NNW 5.0mph /  8km/h 17.0mph /  27.4km/h 43% 0.00in /  0mm
12:49 49.3 °F /  9.6 °C 28.3 °F /  -2.1 °C 29.53in /  999.9hPa NNW 6.0mph /  9.7km/h 19.0mph /  30.6km/h 44% 0.00in /  0mm
12:55 49.1 °F /  9.5 °C 27.6 °F /  -2.4 °C 29.53in /  999.9hPa NW 5.0mph /  8km/h 19.0mph /  30.6km/h 43% 0.00in /  0mm
13:04 50.0 °F /  10 °C 28.4 °F /  -2 °C 29.53in /  999.9hPa NNW 6.0mph /  9.7km/h 16.0mph /  25.7km/h 43% 0.00in /  0mm
13:09 50.4 °F /  10.2 °C 28.7 °F /  -1.8 °C 29.53in /  999.9hPa NNW 7.0mph /  11.3km/h 16.0mph /  25.7km/h 43% 0.00in /  0mm
13:14 50.5 °F /  10.3 °C 27.7 °F /  -2.4 °C 29.53in /  999.9hPa NW 9.0mph /  14.5km/h 16.0mph /  25.7km/h 41% 0.00in /  0mm
13:19 50.3 °F /  10.2 °C 28.1 °F /  -2.2 °C 29.52in /  999.5hPa NNW 5.0mph /  8km/h 16.0mph /  25.7km/h 42% 0.00in /  0mm
13:25 50.3 °F /  10.2 °C 28.1 °F /  -2.2 °C 29.52in /  999.5hPa NNW 8.0mph /  12.9km/h 16.0mph /  25.7km/h 42% 0.00in /  0mm
13:34 50.9 °F /  10.5 °C 28.6 °F /  -1.9 °C 29.52in /  999.5hPa NNW 4.0mph /  6.4km/h 15.0mph /  24.1km/h 42% 0.00in /  0mm
13:39 50.7 °F /  10.4 °C 28.4 °F /  -2 °C 29.52in /  999.5hPa North 5.0mph /  8km/h 16.0mph /  25.7km/h 42% 0.00in /  0mm
13:44 49.9 °F /  9.9 °C 27.1 °F /  -2.7 °C 29.52in /  999.5hPa NW 8.0mph /  12.9km/h 16.0mph /  25.7km/h 41% 0.00in /  0mm
13:55 48.1 °F /  8.9 °C 27.2 °F /  -2.7 °C 29.52in /  999.5hPa NNW 6.0mph /  9.7km/h 18.0mph /  29km/h 44% 0.00in /  0mm
14:05 47.4 °F /  8.6 °C 26.6 °F /  -3 °C 29.52in /  999.5hPa NNW 8.0mph /  12.9km/h 14.0mph /  22.5km/h 44% 0.00in /  0mm
14:14 46.9 °F /  8.3 °C 27.2 °F /  -2.7 °C 29.52in /  999.5hPa North 5.0mph /  8km/h 13.0mph /  20.9km/h 46% 0.00in /  0mm
14:19 46.7 °F /  8.2 °C 27.0 °F /  -2.8 °C 29.51in /  999.2hPa NNW 9.0mph /  14.5km/h 19.0mph /  30.6km/h 46% 0.00in /  0mm
14:25 46.2 °F /  7.9 °C 26.6 °F /  -3 °C 29.51in /  999.2hPa NW 7.0mph /  11.3km/h 19.0mph /  30.6km/h 46% 0.00in /  0mm
14:34 46.0 °F /  7.8 °C 26.9 °F /  -2.8 °C 29.51in /  999.2hPa NW 9.0mph /  14.5km/h 16.0mph /  25.7km/h 47% 0.00in /  0mm
14:40 46.1 °F /  7.8 °C 27.5 °F /  -2.5 °C 29.51in /  999.2hPa NNW 2.0mph /  3.2km/h 16.0mph /  25.7km/h 48% 0.00in /  0mm
14:50 46.1 °F /  7.8 °C 27.5 °F /  -2.5 °C 29.51in /  999.2hPa NW 4.0mph /  6.4km/h 15.0mph /  24.1km/h 48% 0.00in /  0mm
14:59 45.8 °F /  7.7 °C 27.2 °F /  -2.7 °C 29.51in /  999.2hPa NNW 7.0mph /  11.3km/h 14.0mph /  22.5km/h 48% 0.00in /  0mm
15:04 45.7 °F /  7.6 °C 27.6 °F /  -2.4 °C 29.51in /  999.2hPa NNW 7.0mph /  11.3km/h 16.0mph /  25.7km/h 49% 0.00in /  0mm
15:09 45.8 °F /  7.7 °C 27.7 °F /  -2.4 °C 29.51in /  999.2hPa NNW 7.0mph /  11.3km/h 24.0mph /  38.6km/h 49% 0.00in /  0mm
15:14 45.7 °F /  7.6 °C 27.6 °F /  -2.4 °C 29.51in /  999.2hPa North 7.0mph /  11.3km/h 24.0mph /  38.6km/h 49% 0.00in /  0mm
15:19 45.5 °F /  7.5 °C 27.9 °F /  -2.3 °C 29.51in /  999.2hPa NNW 6.0mph /  9.7km/h 20.0mph /  32.2km/h 50% 0.00in /  0mm
15:24 45.3 °F /  7.4 °C 28.2 °F /  -2.1 °C 29.51in /  999.2hPa NNW 6.0mph /  9.7km/h 20.0mph /  32.2km/h 51% 0.00in /  0mm
15:30 45.1 °F /  7.3 °C 28.1 °F /  -2.2 °C 29.52in /  999.5hPa NW 7.0mph /  11.3km/h 18.0mph /  29km/h 51% 0.00in /  0mm
15:35 44.9 °F /  7.2 °C 27.9 °F /  -2.3 °C 29.52in /  999.5hPa NNW 5.0mph /  8km/h 18.0mph /  29km/h 51% 0.00in /  0mm
15:44 44.4 °F /  6.9 °C 28.8 °F /  -1.8 °C 29.52in /  999.5hPa NW 9.0mph /  14.5km/h 17.0mph /  27.4km/h 54% 0.00in /  0mm
15:50 44.1 °F /  6.7 °C 29.0 °F /  -1.7 °C 29.52in /  999.5hPa NW 8.0mph /  12.9km/h 17.0mph /  27.4km/h 55% 0.00in /  0mm
16:00 43.5 °F /  6.4 °C 30.5 °F /  -0.8 °C 29.52in /  999.5hPa NNW 5.0mph /  8km/h 19.0mph /  30.6km/h 60% 0.00in /  0mm
16:05 42.2 °F /  5.7 °C 31.7 °F /  -0.2 °C 29.53in /  999.9hPa NW 7.0mph /  11.3km/h 19.0mph /  30.6km/h 66% 0.00in /  0mm
16:15 40.3 °F /  4.6 °C 32.7 °F /  0.4 °C 29.53in /  999.9hPa NW 5.0mph /  8km/h 9.0mph /  14.5km/h 74% 0.00in /  0mm
16:20 40.3 °F /  4.6 °C 33.3 °F /  0.7 °C 29.53in /  999.9hPa Calm   9.0mph /  14.5km/h 76% 0.00in /  0mm
16:29 40.6 °F /  4.8 °C 32.6 °F /  0.3 °C 29.53in /  999.9hPa NNW 6.0mph /  9.7km/h 17.0mph /  27.4km/h 73% 0.00in /  0mm
16:34 40.9 °F /  4.9 °C 32.6 °F /  0.3 °C 29.53in /  999.9hPa NNW 6.0mph /  9.7km/h 17.0mph /  27.4km/h 72% 0.00in /  0mm
16:40 41.1 °F /  5.1 °C 31.3 °F /  -0.4 °C 29.53in /  999.9hPa NW 11.0mph /  17.7km/h 22.0mph /  35.4km/h 68% 0.00in /  0mm
16:49 41.8 °F /  5.4 °C 32.0 °F /  0 °C 29.53in /  999.9hPa North 4.0mph /  6.4km/h 18.0mph /  29km/h 68% 0.00in /  0mm
16:54 42.0 °F /  5.6 °C 31.1 °F /  -0.5 °C 29.53in /  999.9hPa NNW 9.0mph /  14.5km/h 13.0mph /  20.9km/h 65% 0.00in /  0mm
17:04 42.1 °F /  5.6 °C 30.8 °F /  -0.7 °C 29.53in /  999.9hPa NW 6.0mph /  9.7km/h 14.0mph /  22.5km/h 64% 0.00in /  0mm
17:09 41.8 °F /  5.4 °C 30.9 °F /  -0.6 °C 29.53in /  999.9hPa NNW 6.0mph /  9.7km/h 14.0mph /  22.5km/h 65% 0.00in /  0mm
17:14 41.6 °F /  5.3 °C 30.7 °F /  -0.7 °C 29.53in /  999.9hPa NNW 7.0mph /  11.3km/h 14.0mph /  22.5km/h 65% 0.00in /  0mm
17:19 41.8 °F /  5.4 °C 30.5 °F /  -0.8 °C 29.53in /  999.9hPa North 4.0mph /  6.4km/h 14.0mph /  22.5km/h 64% 0.00in /  0mm
17:24 42.0 °F /  5.6 °C 30.3 °F /  -0.9 °C 29.53in /  999.9hPa NW 5.0mph /  8km/h 17.0mph /  27.4km/h 63% 0.00in /  0mm
17:29 42.3 °F /  5.7 °C 29.8 °F /  -1.2 °C 29.53in /  999.9hPa NW 7.0mph /  11.3km/h 20.0mph /  32.2km/h 61% 0.00in /  0mm
17:44 42.4 °F /  5.8 °C 29.5 °F /  -1.4 °C 29.54in /  1000.2hPa NW 6.0mph /  9.7km/h 15.0mph /  24.1km/h 60% 0.00in /  0mm
17:49 42.3 °F /  5.7 °C 29.4 °F /  -1.4 °C 29.54in /  1000.2hPa NNW 5.0mph /  8km/h 15.0mph /  24.1km/h 60% 0.00in /  0mm
17:59 42.2 °F /  5.7 °C 29.7 °F /  -1.3 °C 29.55in /  1000.6hPa NW 3.0mph /  4.8km/h 15.0mph /  24.1km/h 61% 0.00in /  0mm
18:04 42.2 °F /  5.7 °C 30.1 °F /  -1.1 °C 29.55in /  1000.6hPa WNW 4.0mph /  6.4km/h 15.0mph /  24.1km/h 62% 0.00in /  0mm
18:10 42.2 °F /  5.7 °C 29.7 °F /  -1.3 °C 29.55in /  1000.6hPa NW 4.0mph /  6.4km/h 12.0mph /  19.3km/h 61% 0.00in /  0mm
18:19 42.0 °F /  5.6 °C 29.1 °F /  -1.6 °C 29.56in /  1000.9hPa WNW 6.0mph /  9.7km/h 11.0mph /  17.7km/h 60% 0.00in /  0mm
18:24 41.9 °F /  5.5 °C 29.0 °F /  -1.7 °C 29.56in /  1000.9hPa NW 9.0mph /  14.5km/h 16.0mph /  25.7km/h 60% 0.00in /  0mm
18:29 41.9 °F /  5.5 °C 29.4 °F /  -1.4 °C 29.56in /  1000.9hPa NNW 8.0mph /  12.9km/h 16.0mph /  25.7km/h 61% 0.00in /  0mm
18:35 41.7 °F /  5.4 °C 29.6 °F /  -1.3 °C 29.57in /  1001.2hPa NW 4.0mph /  6.4km/h 15.0mph /  24.1km/h 62% 0.00in /  0mm
18:44 41.5 °F /  5.3 °C 29.8 °F /  -1.2 °C 29.57in /  1001.2hPa NW 4.0mph /  6.4km/h 16.0mph /  25.7km/h 63% 0.00in /  0mm
18:49 41.4 °F /  5.2 °C 29.8 °F /  -1.2 °C 29.57in /  1001.2hPa NW 5.0mph /  8km/h 16.0mph /  25.7km/h 63% 0.00in /  0mm
19:00 41.4 °F /  5.2 °C 29.8 °F /  -1.2 °C 29.58in /  1001.6hPa NW 8.0mph /  12.9km/h 20.0mph /  32.2km/h 63% 0.00in /  0mm
19:10 39.9 °F /  4.4 °C 30.9 °F /  -0.6 °C 29.58in /  1001.6hPa NW 6.0mph /  9.7km/h 21.0mph /  33.8km/h 70% 0.01in /  0.3mm
19:19 39.4 °F /  4.1 °C 31.1 °F /  -0.5 °C 29.58in /  1001.6hPa NW 5.0mph /  8km/h 10.0mph /  16.1km/h 72% 0.01in /  0.3mm
19:24 39.4 °F /  4.1 °C 31.1 °F /  -0.5 °C 29.58in /  1001.6hPa NW 5.0mph /  8km/h 10.0mph /  16.1km/h 72% 0.01in /  0.3mm
19:30 39.5 °F /  4.2 °C 31.2 °F /  -0.4 °C 29.58in /  1001.6hPa NW 2.0mph /  3.2km/h 10.0mph /  16.1km/h 72% 0.01in /  0.3mm
19:40 39.5 °F /  4.2 °C 30.9 °F /  -0.6 °C 29.59in /  1001.9hPa NNW 3.0mph /  4.8km/h 10.0mph /  16.1km/h 71% 0.01in /  0.3mm
19:45 39.3 °F /  4.1 °C 30.7 °F /  -0.7 °C 29.59in /  1001.9hPa NW 5.0mph /  8km/h 10.0mph /  16.1km/h 71% 0.01in /  0.3mm
19:54 39.3 °F /  4.1 °C 30.7 °F /  -0.7 °C 29.59in /  1001.9hPa WNW 5.0mph /  8km/h 12.0mph /  19.3km/h 71% 0.01in /  0.3mm
19:59 39.1 °F /  3.9 °C 30.1 °F /  -1.1 °C 29.59in /  1001.9hPa NW 3.0mph /  4.8km/h 11.0mph /  17.7km/h 70% 0.01in /  0.3mm
20:04 38.9 °F /  3.8 °C 30.3 °F /  -0.9 °C 29.60in /  1002.3hPa NW 8.0mph /  12.9km/h 14.0mph /  22.5km/h 71% 0.01in /  0.3mm
20:09 38.9 °F /  3.8 °C 30.3 °F /  -0.9 °C 29.60in /  1002.3hPa NNW 4.0mph /  6.4km/h 14.0mph /  22.5km/h 71% 0.01in /  0.3mm
20:14 38.8 °F /  3.8 °C 30.2 °F /  -1 °C 29.60in /  1002.3hPa NW 7.0mph /  11.3km/h 16.0mph /  25.7km/h 71% 0.01in /  0.3mm
20:19 38.7 °F /  3.7 °C 29.8 °F /  -1.2 °C 29.60in /  1002.3hPa NW 5.0mph /  8km/h 16.0mph /  25.7km/h 70% 0.01in /  0.3mm
20:24 38.5 °F /  3.6 °C 29.6 °F /  -1.3 °C 29.61in /  1002.6hPa NW 4.0mph /  6.4km/h 14.0mph /  22.5km/h 70% 0.01in /  0.3mm
20:29 38.5 °F /  3.6 °C 29.6 °F /  -1.3 °C 29.61in /  1002.6hPa WNW 4.0mph /  6.4km/h 14.0mph /  22.5km/h 70% 0.01in /  0.3mm
20:34 38.4 °F /  3.6 °C 29.5 °F /  -1.4 °C 29.61in /  1002.6hPa NW 5.0mph /  8km/h 12.0mph /  19.3km/h 70% 0.01in /  0.3mm
20:39 38.5 °F /  3.6 °C 29.6 °F /  -1.3 °C 29.61in /  1002.6hPa NW 2.0mph /  3.2km/h 14.0mph /  22.5km/h 70% 0.01in /  0.3mm
20:44 38.5 °F /  3.6 °C 29.6 °F /  -1.3 °C 29.61in /  1002.6hPa Calm   14.0mph /  22.5km/h 70% 0.01in /  0.3mm
20:49 38.4 °F /  3.6 °C 29.5 °F /  -1.4 °C 29.61in /  1002.6hPa NW 1.0mph /  1.6km/h 6.0mph /  9.7km/h 70% 0.01in /  0.3mm
20:59 38.7 °F /  3.7 °C 29.4 °F /  -1.4 °C 29.61in /  1002.6hPa NW 5.0mph /  8km/h 11.0mph /  17.7km/h 69% 0.01in /  0.3mm
21:04 38.9 °F /  3.8 °C 29.6 °F /  -1.3 °C 29.61in /  1002.6hPa NNW 2.0mph /  3.2km/h 11.0mph /  17.7km/h 69% 0.01in /  0.3mm
21:09 38.9 °F /  3.8 °C 29.2 °F /  -1.6 °C 29.62in /  1002.9hPa NW 7.0mph /  11.3km/h 13.0mph /  20.9km/h 68% 0.01in /  0.3mm
21:14 39.0 °F /  3.9 °C 29.3 °F /  -1.5 °C 29.61in /  1002.6hPa NW 5.0mph /  8km/h 13.0mph /  20.9km/h 68% 0.01in /  0.3mm
21:19 39.1 °F /  3.9 °C 29.4 °F /  -1.4 °C 29.62in /  1002.9hPa NW 5.0mph /  8km/h 13.0mph /  20.9km/h 68% 0.01in /  0.3mm
21:24 39.1 °F /  3.9 °C 29.1 °F /  -1.6 °C 29.62in /  1002.9hPa NW 4.0mph /  6.4km/h 11.0mph /  17.7km/h 67% 0.01in /  0.3mm
21:29 39.1 °F /  3.9 °C 29.1 °F /  -1.6 °C 29.62in /  1002.9hPa WNW 7.0mph /  11.3km/h 9.0mph /  14.5km/h 67% 0.01in /  0.3mm
21:34 39.2 °F /  4 °C 28.8 °F /  -1.8 °C 29.62in /  1002.9hPa NW 7.0mph /  11.3km/h 13.0mph /  20.9km/h 66% 0.01in /  0.3mm
21:40 39.3 °F /  4.1 °C 28.9 °F /  -1.7 °C 29.62in /  1002.9hPa NW 5.0mph /  8km/h 16.0mph /  25.7km/h 66% 0.01in /  0.3mm
21:50 39.3 °F /  4.1 °C 28.5 °F /  -1.9 °C 29.62in /  1002.9hPa NW 7.0mph /  11.3km/h 15.0mph /  24.1km/h 65% 0.01in /  0.3mm
21:55 39.3 °F /  4.1 °C 28.5 °F /  -1.9 °C 29.63in /  1003.3hPa NW 6.0mph /  9.7km/h 15.0mph /  24.1km/h 65% 0.01in /  0.3mm
22:04 39.2 °F /  4 °C 28.0 °F /  -2.2 °C 29.63in /  1003.3hPa NNW 4.0mph /  6.4km/h 15.0mph /  24.1km/h 64% 0.01in /  0.3mm
22:09 39.1 °F /  3.9 °C 28.0 °F /  -2.2 °C 29.63in /  1003.3hPa NNW 5.0mph /  8km/h 15.0mph /  24.1km/h 64% 0.01in /  0.3mm
22:14 39.1 °F /  3.9 °C 28.0 °F /  -2.2 °C 29.63in /  1003.3hPa North 3.0mph /  4.8km/h 11.0mph /  17.7km/h 64% 0.01in /  0.3mm
22:19 39.1 °F /  3.9 °C 28.0 °F /  -2.2 °C 29.63in /  1003.3hPa NW 2.0mph /  3.2km/h 11.0mph /  17.7km/h 64% 0.01in /  0.3mm
22:24 39.1 °F /  3.9 °C 28.0 °F /  -2.2 °C 29.63in /  1003.3hPa North 1.0mph /  1.6km/h 10.0mph /  16.1km/h 64% 0.01in /  0.3mm
22:29 38.8 °F /  3.8 °C 29.1 °F /  -1.6 °C 29.64in /  1003.6hPa NNE 3.0mph /  4.8km/h 9.0mph /  14.5km/h 68% 0.01in /  0.3mm
22:34 38.2 °F /  3.4 °C 29.6 °F /  -1.3 °C 29.64in /  1003.6hPa North 2.0mph /  3.2km/h 11.0mph /  17.7km/h 71% 0.01in /  0.3mm
22:40 37.7 °F /  3.2 °C 29.8 °F /  -1.2 °C 29.64in /  1003.6hPa NNE 3.0mph /  4.8km/h 11.0mph /  17.7km/h 73% 0.01in /  0.3mm
22:54 36.8 °F /  2.7 °C 30.0 °F /  -1.1 °C 29.64in /  1003.6hPa Calm   7.0mph /  11.3km/h 76% 0.01in /  0.3mm
22:59 36.7 °F /  2.6 °C 29.9 °F /  -1.2 °C 29.65in /  1003.9hPa NNE 1.0mph /  1.6km/h 4.0mph /  6.4km/h 76% 0.01in /  0.3mm
23:04 36.6 °F /  2.6 °C 29.8 °F /  -1.2 °C 29.65in /  1003.9hPa NNE 1.0mph /  1.6km/h 8.0mph /  12.9km/h 76% 0.01in /  0.3mm
23:09 36.6 °F /  2.6 °C 30.1 °F /  -1.1 °C 29.65in /  1003.9hPa Calm   10.0mph /  16.1km/h 77% 0.01in /  0.3mm
23:14 36.2 °F /  2.3 °C 30.0 °F /  -1.1 °C 29.65in /  1003.9hPa NNE 2.0mph /  3.2km/h 10.0mph /  16.1km/h 78% 0.01in /  0.3mm
23:19 35.9 °F /  2.2 °C 30.0 °F /  -1.1 °C 29.65in /  1003.9hPa Calm   7.0mph /  11.3km/h 79% 0.01in /  0.3mm
23:24 35.6 °F /  2 °C 29.7 °F /  -1.3 °C 29.65in /  1003.9hPa Calm   3.0mph /  4.8km/h 79% 0.01in /  0.3mm
23:29 35.5 °F /  1.9 °C 29.6 °F /  -1.3 °C 29.65in /  1003.9hPa Calm   4.0mph /  6.4km/h 79% 0.01in /  0.3mm
23:39 35.3 °F /  1.8 °C 29.1 °F /  -1.6 °C 29.65in /  1003.9hPa Calm   8.0mph /  12.9km/h 78% 0.01in /  0.3mm
23:44 35.4 °F /  1.9 °C 28.9 °F /  -1.7 °C 29.66in /  1004.3hPa NNE 4.0mph /  6.4km/h 9.0mph /  14.5km/h 77% 0.01in /  0.3mm
23:50 35.7 °F /  2.1 °C 28.6 °F /  -1.9 °C 29.66in /  1004.3hPa NNW 3.0mph /  4.8km/h 13.0mph /  20.9km/h 75% 0.01in /  0.3mm
23:59 35.9 °F /  2.2 °C 28.8 °F /  -1.8 °C 29.66in /  1004.3hPa North 2.0mph /  3.2km/h 8.0mph /  12.9km/h 75% 0.01in /  0.3mm
Westford Weather
Compliments of Weather Underground

 
 
Current Radar Loop:

Copyright © WestfordWeather.net 2007-2014. All rights reserved.